Time;durP1;ratioP1;P1;durP2;ratioP2;P2;SDS_P1;SDS_P2;PMS_P1;PMS_P2;Temp;Humidity;BMP_temperature;BMP_pressure;BME280_temperature;BME280_humidity;BME280_pressure;Samples;Min_cycle;Max_cycle;Signal;HPM_P1;HPM_P2
2022/09/22 00:00:38;;;;;;;4.30;0.90;;;;;;;6.88;82.14;99297.47;4935796;28;20243;-53
2022/09/22 00:03:04;;;;;;;1.87;1.27;;;;;;;6.96;84.45;99296.09;4936603;28;20254;-53
2022/09/22 00:05:31;;;;;;;2.63;1.10;;;;;;;6.92;83.10;99290.28;4937964;28;20300;-52
2022/09/22 00:07:58;;;;;;;1.30;1.00;;;;;;;6.82;83.46;99282.34;4935642;28;20731;-52
2022/09/22 00:10:24;;;;;;;3.47;1.30;;;;;;;6.80;82.33;99284.22;4934153;28;20242;-53
2022/09/22 00:12:53;;;;;;;2.33;1.13;;;;;;;6.76;81.90;99278.44;4934407;28;20290;-55
2022/09/22 00:15:22;;;;;;;2.30;1.57;;;;;;;6.81;81.13;99285.88;4934312;28;20246;-52
2022/09/22 00:17:48;;;;;;;3.03;1.17;;;;;;;6.85;81.23;99286.50;4936470;28;20235;-52
2022/09/22 00:20:16;;;;;;;1.67;1.10;;;;;;;6.87;82.08;99282.03;4935961;28;20727;-51
2022/09/22 00:22:43;;;;;;;2.23;1.07;;;;;;;6.95;79.77;99279.69;4938859;28;20703;-52
2022/09/22 00:25:10;;;;;;;2.20;1.17;;;;;;;6.96;79.57;99280.53;4936551;28;20227;-55
2022/09/22 00:27:36;;;;;;;2.07;1.07;;;;;;;6.95;80.90;99279.69;4938162;28;20328;-55
2022/09/22 00:30:04;;;;;;;3.30;0.97;;;;;;;6.96;80.49;99281.34;4935289;28;20230;-54
2022/09/22 00:32:32;;;;;;;1.63;1.10;;;;;;;6.98;80.60;99276.03;4939490;28;20302;-53
2022/09/22 00:34:59;;;;;;;1.70;0.93;;;;;;;6.97;81.51;99271.78;4932466;28;20413;-54
2022/09/22 00:37:25;;;;;;;4.23;1.40;;;;;;;7.04;80.65;99262.63;4936996;28;20247;-54
2022/09/22 00:39:52;;;;;;;2.23;1.03;;;;;;;6.96;81.00;99265.75;4932930;28;20234;-53
2022/09/22 00:42:19;;;;;;;3.27;1.10;;;;;;;7.01;80.10;99262.84;4933670;28;20250;-52
2022/09/22 00:44:46;;;;;;;1.87;1.10;;;;;;;7.05;80.22;99259.91;4941823;28;20737;-54
2022/09/22 00:47:26;;;;;;;1.50;1.10;;;;;;;7.08;80.60;99258.88;4928532;28;20243;-52
2022/09/22 00:49:59;;;;;;;2.70;1.20;;;;;;;7.16;78.10;99251.34;4937219;28;20290;-55
2022/09/22 00:52:31;;;;;;;4.80;1.20;;;;;;;7.20;78.91;99257.13;4935725;28;20267;-54
2022/09/22 00:55:02;;;;;;;1.20;1.10;;;;;;;7.22;78.39;99250.88;4934447;28;20226;-52
2022/09/22 00:57:33;;;;;;;3.10;1.20;;;;;;;7.20;77.85;99260.56;4940370;28;20238;-55
2022/09/22 01:00:03;;;;;;;2.87;1.03;;;;;;;7.16;78.60;99259.13;4936384;28;20261;-55
2022/09/22 01:02:30;;;;;;;3.07;1.23;;;;;;;7.07;79.73;99260.63;4940307;28;20339;-55
2022/09/22 01:04:58;;;;;;;2.90;1.30;;;;;;;6.99;80.91;99260.34;4932974;28;20234;-52
2022/09/22 01:07:27;;;;;;;2.53;0.97;;;;;;;7.00;79.42;99264.59;4935335;28;20318;-53
2022/09/22 01:09:55;;;;;;;3.50;1.00;;;;;;;7.05;80.28;99261.69;4936123;28;20298;-55
2022/09/22 01:12:23;;;;;;;4.33;1.50;;;;;;;7.06;80.59;99258.16;4938573;28;20706;-53
2022/09/22 01:15:05;;;;;;;2.07;1.33;;;;;;;7.08;79.28;99261.47;4937905;28;20253;-52
2022/09/22 01:17:38;;;;;;;3.30;1.73;;;;;;;7.05;79.15;99259.09;4936392;28;20694;-54
2022/09/22 01:20:49;;;;;;;3.33;0.80;;;;;;;7.06;78.14;99260.75;4932919;28;20236;-53
2022/09/22 01:23:41;;;;;;;2.03;1.10;;;;;;;7.11;78.35;99261.22;4935110;28;20246;-52
2022/09/22 01:26:49;;;;;;;2.03;1.00;;;;;;;7.20;78.72;99257.13;4904878;28;20265;-53
2022/09/22 01:29:51;;;;;;;1.23;0.90;;;;;;;7.27;77.47;99260.09;4935081;28;20237;-55
2022/09/22 01:32:27;;;;;;;2.10;1.00;;;;;;;7.19;78.34;99258.06;4937738;28;20246;-53
2022/09/22 01:34:58;;;;;;;2.33;1.10;;;;;;;7.13;79.80;99251.56;4936508;28;20583;-55
2022/09/22 01:37:32;;;;;;;2.37;1.10;;;;;;;7.05;79.41;99248.72;4940660;28;20573;-53
2022/09/22 01:40:04;;;;;;;1.20;1.00;;;;;;;6.95;79.40;99248.53;4939756;28;20260;-52
2022/09/22 01:42:37;;;;;;;4.17;1.10;;;;;;;6.89;80.27;99243.81;4941744;28;20322;-55
2022/09/22 01:45:08;;;;;;;1.37;1.07;;;;;;;6.83;80.79;99250.25;4939030;28;20227;-55
2022/09/22 01:47:41;;;;;;;2.30;0.90;;;;;;;6.77;81.44;99240.34;4941956;28;20239;-55
2022/09/22 01:50:12;;;;;;;3.60;1.23;;;;;;;6.89;80.70;99243.81;4936873;28;20770;-54
2022/09/22 01:52:41;;;;;;;3.23;1.00;;;;;;;6.86;80.40;99234.47;4942204;28;20262;-52
2022/09/22 01:55:14;;;;;;;3.40;1.30;;;;;;;6.90;81.45;99237.66;4941243;28;20235;-52
2022/09/22 01:57:47;;;;;;;1.90;1.30;;;;;;;6.89;81.40;99239.44;4941473;28;20723;-55
2022/09/22 02:00:14;;;;;;;1.73;1.10;;;;;;;6.84;81.18;99244.13;4940611;28;20269;-53
2022/09/22 02:02:50;;;;;;;2.33;1.00;;;;;;;6.78;81.29;99240.22;4941305;28;20709;-52
2022/09/22 02:05:22;;;;;;;2.33;1.20;;;;;;;6.75;81.70;99243.06;4940340;28;20257;-52
2022/09/22 02:07:52;;;;;;;2.00;1.17;;;;;;;6.74;81.69;99233.59;4939801;28;20718;-52
2022/09/22 02:10:23;;;;;;;1.67;1.00;;;;;;;6.73;82.38;99237.16;4936200;28;20716;-53
2022/09/22 02:12:51;;;;;;;3.57;1.17;;;;;;;6.70;82.90;99231.34;4939377;28;20239;-52
2022/09/22 02:18:09;;;;;;;3.87;1.20;;;;;;;6.59;83.85;99240.72;4933029;28;20262;-55
2022/09/22 02:20:36;;;;;;;2.37;1.23;;;;;;;6.54;84.27;99240.22;4940374;28;20233;-53
2022/09/22 02:23:03;;;;;;;3.10;1.40;;;;;;;6.50;84.07;99238.78;4938467;28;20592;-52
2022/09/22 02:25:30;;;;;;;3.27;1.40;;;;;;;6.44;84.37;99247.84;4943969;28;20309;-52
2022/09/22 02:27:57;;;;;;;3.57;1.20;;;;;;;6.42;84.39;99238.50;4938859;28;20239;-54
2022/09/22 02:30:26;;;;;;;3.17;1.33;;;;;;;6.40;84.30;99235.19;4940974;28;20262;-56
2022/09/22 02:32:56;;;;;;;2.10;1.00;;;;;;;6.33;83.87;99237.41;4937877;28;20285;-53
2022/09/22 02:35:29;;;;;;;1.23;0.90;;;;;;;6.30;84.34;99241.03;4936521;28;20282;-54
2022/09/22 02:38:03;;;;;;;1.47;1.00;;;;;;;6.31;84.34;99237.53;4935178;28;20595;-53
2022/09/22 02:40:38;;;;;;;2.43;1.40;;;;;;;6.35;85.05;99236.38;4941671;28;20271;-52
2022/09/22 02:43:11;;;;;;;4.00;1.30;;;;;;;6.40;84.55;99236.03;4937533;28;20342;-52
2022/09/22 02:45:45;;;;;;;2.57;1.27;;;;;;;6.44;84.07;99228.84;4936187;29;20223;-52
2022/09/22 02:48:18;;;;;;;3.00;1.47;;;;;;;6.52;83.64;99236.91;4936813;28;20238;-55
2022/09/22 02:50:46;;;;;;;1.97;0.97;;;;;;;6.56;82.75;99232.34;4939805;28;20231;-54
2022/09/22 02:53:14;;;;;;;2.80;1.20;;;;;;;6.57;83.64;99231.41;4934339;28;20317;-55
2022/09/22 02:55:42;;;;;;;2.20;1.30;;;;;;;6.57;82.94;99231.41;4938137;28;20305;-52
2022/09/22 02:58:09;;;;;;;2.17;1.20;;;;;;;6.54;83.18;99229.84;4938588;28;20253;-52
2022/09/22 03:03:55;;;;;;;3.13;1.20;;;;;;;6.48;84.18;99225.09;5773332;23;20670;-52
2022/09/22 03:06:42;;;;;;;3.10;1.20;;;;;;;6.46;84.72;99219.19;5009429;28;20352;-54
2022/09/22 03:09:09;;;;;;;4.37;1.40;;;;;;;6.42;85.20;99222.94;5003333;28;20322;-55
2022/09/22 03:11:35;;;;;;;4.37;1.37;;;;;;;6.35;84.87;99214.78;5006843;28;20655;-52
2022/09/22 03:14:02;;;;;;;4.13;1.40;;;;;;;6.31;84.47;99218.53;4992598;28;20330;-54
2022/09/22 03:16:29;;;;;;;5.33;1.30;;;;;;;6.31;85.22;99214.19;4989258;28;20229;-55
2022/09/22 03:18:56;;;;;;;1.77;1.30;;;;;;;6.33;86.28;99214.91;4985363;28;20368;-54
2022/09/22 03:21:22;;;;;;;3.37;1.60;;;;;;;6.48;86.07;99207.78;4989012;28;20228;-53
2022/09/22 03:23:50;;;;;;;2.20;1.57;;;;;;;6.33;86.64;99216.66;4988473;28;20282;-55
2022/09/22 03:26:17;;;;;;;3.37;1.50;;;;;;;6.29;85.46;99210.88;4985148;28;20225;-55
2022/09/22 03:28:44;;;;;;;2.37;1.10;;;;;;;6.24;85.89;99210.38;4988792;28;20330;-52
2022/09/22 03:31:10;;;;;;;3.13;1.30;;;;;;;6.27;85.83;99207.56;4986696;28;20217;-52
2022/09/22 03:33:37;;;;;;;1.40;1.10;;;;;;;6.11;86.33;99210.38;4988224;28;20331;-52
2022/09/22 03:36:05;;;;;;;2.17;1.47;;;;;;;6.10;86.60;99213.09;4985430;28;20236;-53
2022/09/22 03:38:32;;;;;;;1.90;1.10;;;;;;;5.99;86.55;99212.06;4987608;28;20232;-52
2022/09/22 03:41:01;;;;;;;2.80;1.10;;;;;;;5.91;86.31;99212.56;4984096;28;20236;-52
2022/09/22 03:43:27;;;;;;;1.90;1.30;;;;;;;5.99;87.49;99211.22;4984300;28;20237;-53
2022/09/22 03:45:57;;;;;;;1.67;1.07;;;;;;;5.91;88.94;99211.75;4988826;28;20288;-55
2022/09/22 03:48:25;;;;;;;2.63;1.33;;;;;;;5.88;89.37;99212.78;4990009;28;20225;-54
2022/09/22 03:50:51;;;;;;;2.77;1.27;;;;;;;5.91;89.55;99209.16;4985958;28;20947;-52
2022/09/22 03:53:18;;;;;;;1.53;1.10;;;;;;;5.79;90.42;99213.44;4988618;28;20331;-52
2022/09/22 03:55:45;;;;;;;3.23;1.40;;;;;;;5.77;88.90;99210.13;4988901;28;20233;-55
2022/09/22 03:58:13;;;;;;;3.97;1.50;;;;;;;5.70;89.78;99208.88;4987230;28;20316;-52
2022/09/22 04:00:39;;;;;;;3.87;1.30;;;;;;;5.59;89.75;99217.38;4988608;28;20291;-52
2022/09/22 04:03:06;;;;;;;1.73;1.30;;;;;;;5.60;91.38;99206.09;4987911;28;20291;-55
2022/09/22 04:05:33;;;;;;;9.00;6.67;;;;;;;5.52;91.96;99216.13;4991277;28;20233;-54
2022/09/22 04:08:01;;;;;;;8.53;7.67;;;;;;;5.52;91.95;99210.94;4987584;28;20356;-53
2022/09/22 04:10:27;;;;;;;8.20;5.90;;;;;;;5.46;92.71;99202.66;4987905;28;20264;-52
2022/09/22 04:12:54;;;;;;;2.70;1.70;;;;;;;5.43;92.43;99208.06;4984535;28;20882;-53
2022/09/22 04:15:22;;;;;;;3.87;1.63;;;;;;;5.43;92.06;99208.06;4988254;28;20283;-52
2022/09/22 04:17:49;;;;;;;3.03;1.13;;;;;;;5.38;92.67;99210.13;4987483;28;20804;-52
2022/09/22 04:20:15;;;;;;;3.47;1.20;;;;;;;5.48;93.10;99202.56;4984394;28;20675;-55
2022/09/22 04:22:42;;;;;;;3.00;1.10;;;;;;;5.47;93.12;99206.09;4988007;28;20255;-52
2022/09/22 04:25:09;;;;;;;3.20;1.60;;;;;;;5.47;93.52;99206.91;4985704;28;20248;-53
2022/09/22 04:27:36;;;;;;;2.63;1.20;;;;;;;5.53;93.40;99212.59;4988983;28;20246;-52
2022/09/22 04:30:04;;;;;;;3.40;1.30;;;;;;;5.58;93.20;99208.78;4985152;28;20303;-54
2022/09/22 04:32:32;;;;;;;3.90;1.40;;;;;;;5.52;93.50;99208.38;4987598;28;20897;-54
2022/09/22 04:34:59;;;;;;;3.20;1.50;;;;;;;5.47;92.80;99201.72;4983325;28;20264;-54
2022/09/22 04:37:26;;;;;;;2.93;1.50;;;;;;;5.55;93.03;99206.41;4986689;28;20239;-54
2022/09/22 04:39:53;;;;;;;4.30;1.60;;;;;;;5.51;93.45;99204.97;4986945;28;20873;-55
2022/09/22 04:42:19;;;;;;;3.23;1.30;;;;;;;5.55;93.69;99200.38;4989074;28;20347;-53
2022/09/22 04:44:46;;;;;;;3.40;1.40;;;;;;;5.46;94.15;99210.44;4990254;28;20322;-53
2022/09/22 04:47:13;;;;;;;1.73;1.20;;;;;;;5.40;94.44;99203.06;4988851;28;20329;-53
2022/09/22 04:49:41;;;;;;;1.83;1.23;;;;;;;5.35;94.22;99199.97;4991647;28;20263;-53
2022/09/22 04:52:08;;;;;;;1.70;1.50;;;;;;;5.30;93.98;99202.06;4988053;28;20237;-55
2022/09/22 04:54:35;;;;;;;4.10;1.70;;;;;;;5.33;93.49;99201.84;4988886;28;20290;-55
2022/09/22 04:57:02;;;;;;;2.80;1.20;;;;;;;5.24;93.69;99203.28;4984247;28;20237;-55
2022/09/22 04:59:29;;;;;;;9.10;3.13;;;;;;;5.27;94.50;99203.09;4988156;28;20935;-52
2022/09/22 05:01:56;;;;;;;5.93;3.20;;;;;;;5.35;93.94;99201.75;4986654;28;20624;-55
2022/09/22 05:04:23;;;;;;;5.83;1.63;;;;;;;5.25;94.92;99198.97;4987031;28;20229;-55
2022/09/22 05:06:51;;;;;;;5.17;1.90;;;;;;;5.28;95.02;99198.75;4988594;28;20715;-53
2022/09/22 05:09:19;;;;;;;3.87;1.40;;;;;;;5.30;94.60;99205.47;4988189;28;20677;-52
2022/09/22 05:11:47;;;;;;;10.93;7.47;;;;;;;5.26;95.41;99198.84;4988489;28;20634;-55
2022/09/22 05:14:14;;;;;;;5.90;3.00;;;;;;;5.25;96.14;99207.53;4989885;28;20241;-52
2022/09/22 05:16:41;;;;;;;4.37;2.63;;;;;;;5.25;95.99;99211.91;4989847;28;20266;-52
2022/09/22 05:19:09;;;;;;;3.63;2.17;;;;;;;5.21;96.43;99207.84;4987293;28;20232;-52
2022/09/22 05:21:35;;;;;;;8.27;2.53;;;;;;;5.32;95.30;99211.38;4986191;28;20225;-52
2022/09/22 05:24:44;;;;;;;7.50;4.33;;;;;;;5.28;95.47;99216.88;4987200;28;20822;-52
2022/09/22 05:27:30;;;;;;;3.97;2.60;;;;;;;5.25;95.32;99210.13;4978721;28;20244;-52
2022/09/22 05:30:16;;;;;;;6.13;2.97;;;;;;;5.20;96.21;99211.38;4986133;28;20684;-55
2022/09/22 05:33:01;;;;;;;4.37;2.60;;;;;;;5.16;97.15;99221.94;4983930;28;20237;-53
2022/09/22 05:35:47;;;;;;;6.60;2.80;;;;;;;5.12;96.46;99222.22;4986836;28;20223;-52
2022/09/22 05:38:32;;;;;;;5.53;2.80;;;;;;;5.08;97.89;99234.53;4984473;28;20290;-54
2022/09/22 05:41:17;;;;;;;6.37;2.10;;;;;;;5.09;97.30;99228.44;4984825;28;20243;-53
2022/09/22 05:44:04;;;;;;;6.87;3.23;;;;;;;5.06;97.52;99228.63;4985593;28;20652;-53
2022/09/22 05:46:49;;;;;;;7.47;2.93;;;;;;;5.12;97.08;99224.81;4987483;28;20901;-52
2022/09/22 05:49:34;;;;;;;11.23;3.47;;;;;;;5.16;97.57;99232.28;4986506;28;20241;-52
2022/09/22 05:52:19;;;;;;;5.90;3.40;;;;;;;5.11;96.42;99234.34;4989275;28;20375;-54
2022/09/22 05:55:05;;;;;;;4.10;3.67;;;;;;;5.11;97.16;99224.00;4981544;28;20222;-53
2022/09/22 05:57:56;;;;;;;5.00;2.87;;;;;;;5.19;97.01;99222.66;4984753;28;20370;-55
2022/09/22 06:00:43;;;;;;;4.97;3.30;;;;;;;5.19;97.48;99231.25;4983627;28;20278;-53
2022/09/22 06:03:28;;;;;;;3.57;2.43;;;;;;;5.20;97.67;99224.31;4983011;28;20698;-52
2022/09/22 06:06:13;;;;;;;4.43;2.50;;;;;;;5.23;97.64;99229.28;4984231;28;21306;-52
2022/09/22 06:08:58;;;;;;;5.00;2.30;;;;;;;5.24;97.39;99226.59;4984552;28;20681;-55
2022/09/22 06:11:43;;;;;;;5.53;2.30;;;;;;;5.41;97.27;99222.84;4986732;28;20232;-54
2022/09/22 06:14:29;;;;;;;1.50;1.40;;;;;;;5.38;96.77;99223.06;4984593;28;20287;-55
2022/09/22 06:17:15;;;;;;;1.90;1.20;;;;;;;5.41;97.70;99229.81;4983575;28;20235;-54
2022/09/22 06:20:01;;;;;;;2.33;1.80;;;;;;;5.43;97.32;99221.00;4984556;28;20331;-52
2022/09/22 06:22:47;;;;;;;5.20;1.63;;;;;;;5.53;96.78;99228.16;4988212;28;20232;-53
2022/09/22 06:25:32;;;;;;;3.77;1.37;;;;;;;5.50;96.89;99218.84;4989490;28;20236;-54
2022/09/22 06:28:17;;;;;;;5.23;1.47;;;;;;;5.56;96.82;99217.59;4988593;28;20398;-53
2022/09/22 06:31:03;;;;;;;4.23;1.30;;;;;;;5.68;96.74;99219.34;4988486;28;20441;-53
2022/09/22 06:33:49;;;;;;;3.70;1.40;;;;;;;5.69;96.12;99217.59;4991898;28;20345;-52
2022/09/22 06:36:34;;;;;;;5.47;2.30;;;;;;;5.73;96.21;99217.25;4989660;28;20320;-53
2022/09/22 06:39:20;;;;;;;5.00;1.97;;;;;;;5.76;96.07;99227.41;4992867;28;20239;-52
2022/09/22 06:42:05;;;;;;;9.07;4.80;;;;;;;5.81;94.28;99215.91;4992424;28;20228;-52
2022/09/22 06:44:52;;;;;;;7.07;2.13;;;;;;;5.91;95.57;99215.16;4994747;28;20236;-55
2022/09/22 06:47:37;;;;;;;3.10;1.00;;;;;;;5.94;94.96;99221.06;4991022;28;20255;-55
2022/09/22 06:50:23;;;;;;;5.13;2.37;;;;;;;5.96;95.99;99222.63;4989680;28;20244;-55
2022/09/22 06:53:11;;;;;;;6.03;3.53;;;;;;;6.01;94.25;99223.16;4989156;28;20251;-54
2022/09/22 06:55:59;;;;;;;5.50;3.80;;;;;;;6.03;93.88;99226.47;4985202;28;20700;-52
2022/09/22 06:58:44;;;;;;;5.57;4.20;;;;;;;6.09;94.55;99220.03;4988896;28;21339;-56
2022/09/22 07:01:29;;;;;;;6.13;4.17;;;;;;;6.14;93.57;99217.13;4987553;28;20572;-53
2022/09/22 07:04:16;;;;;;;4.90;3.80;;;;;;;6.16;93.25;99226.44;4989809;28;20259;-52
2022/09/22 07:07:02;;;;;;;5.50;2.70;;;;;;;6.25;92.19;99214.63;4989742;28;20306;-52
2022/09/22 07:09:48;;;;;;;3.20;2.20;;;;;;;6.26;92.07;99212.84;4993195;28;20689;-53
2022/09/22 07:12:33;;;;;;;6.67;3.07;;;;;;;6.27;92.95;99210.16;4986991;28;20935;-55
2022/09/22 07:15:18;;;;;;;5.13;3.70;;;;;;;6.32;92.59;99212.41;4993414;28;20247;-52
2022/09/22 07:18:03;;;;;;;5.43;3.40;;;;;;;6.37;92.94;99217.25;4985499;28;20751;-55
2022/09/22 07:20:48;;;;;;;8.70;3.57;;;;;;;6.41;93.86;99216.94;4990128;28;20236;-55
2022/09/22 07:23:35;;;;;;;12.93;4.47;;;;;;;6.48;93.81;99214.72;4989995;28;20329;-55
2022/09/22 07:26:25;;;;;;;8.27;5.70;;;;;;;6.55;93.80;99213.34;4988531;28;20255;-52
2022/09/22 07:29:12;;;;;;;9.10;5.77;;;;;;;6.70;94.11;99213.19;4987669;28;20216;-52
2022/09/22 07:31:58;;;;;;;8.67;4.47;;;;;;;6.84;91.96;99209.59;4992982;28;20584;-53
2022/09/22 07:34:43;;;;;;;8.90;4.90;;;;;;;6.99;93.06;99211.03;4991939;28;20592;-53
2022/09/22 07:37:31;;;;;;;8.90;5.13;;;;;;;7.15;92.34;99215.94;5071985;23;20394;-52
2022/09/22 07:43:00;;;;;;;7.90;4.77;;;;;;;7.46;90.31;99218.81;5397136;23;20873;-54
2022/09/22 07:45:27;;;;;;;7.47;5.00;;;;;;;7.63;90.41;99227.09;4983498;28;20237;-53
2022/09/22 07:50:38;;;;;;;7.17;4.90;;;;;;;7.97;86.81;99224.50;4985170;28;20268;-53
2022/09/22 07:53:04;;;;;;;7.23;5.17;;;;;;;8.05;86.26;99216.94;4983690;28;20287;-53
2022/09/22 07:55:35;;;;;;;7.73;4.93;;;;;;;8.16;86.05;99215.25;4983920;28;20228;-55
2022/09/22 07:58:03;;;;;;;8.63;4.27;;;;;;;8.26;85.55;99216.19;4984359;28;20699;-51
2022/09/22 08:00:31;;;;;;;7.47;4.80;;;;;;;8.40;85.38;99215.94;4989791;28;20225;-54
2022/09/22 08:03:00;;;;;;;8.53;5.13;;;;;;;8.55;83.91;99223.47;4986186;28;20232;-54
2022/09/22 08:05:28;;;;;;;9.97;5.40;;;;;;;8.60;82.41;99229.13;4986615;28;20221;-54
2022/09/22 08:07:57;;;;;;;8.30;4.50;;;;;;;8.70;80.93;99219.63;4988077;28;20234;-54
2022/09/22 08:10:25;;;;;;;9.50;4.33;;;;;;;8.92;80.23;99228.31;4986920;28;20229;-54
2022/09/22 08:12:52;;;;;;;6.03;4.53;;;;;;;9.06;81.12;99223.75;4988468;28;20722;-53
2022/09/22 08:15:22;;;;;;;12.70;6.27;;;;;;;9.18;79.63;99224.50;4983423;28;20234;-54
2022/09/22 08:17:49;;;;;;;10.00;6.27;;;;;;;9.16;79.34;99217.63;4989760;28;20284;-54
2022/09/22 08:20:17;;;;;;;8.70;5.93;;;;;;;9.26;79.25;99222.94;4987576;28;20226;-52
2022/09/22 08:22:44;;;;;;;9.70;5.37;;;;;;;9.39;79.95;99211.47;4983665;28;20592;-54
2022/09/22 08:25:29;;;;;;;11.13;6.57;;;;;;;9.49;77.51;99217.56;4983386;28;20236;-54
2022/09/22 08:27:56;;;;;;;8.77;5.17;;;;;;;9.55;76.74;99216.22;4981236;28;20236;-52
2022/09/22 08:30:24;;;;;;;15.77;7.63;;;;;;;9.63;76.20;99223.38;4986476;28;20241;-53
2022/09/22 08:32:50;;;;;;;15.20;7.90;;;;;;;9.58;78.18;99221.97;4987406;28;20260;-52
2022/09/22 08:35:17;;;;;;;12.03;7.03;;;;;;;9.71;77.97;99223.56;4984794;28;20237;-55
2022/09/22 08:37:44;;;;;;;10.23;7.17;;;;;;;9.79;77.78;99217.72;4987077;28;20236;-54
2022/09/22 08:40:19;;;;;;;12.90;7.57;;;;;;;9.82;77.19;99214.84;4983704;28;20231;-54
2022/09/22 08:42:46;;;;;;;14.83;6.63;;;;;;;10.00;76.92;99218.47;4984707;28;20245;-55
2022/09/22 08:45:25;;;;;;;12.90;6.80;;;;;;;10.06;75.62;99216.28;4984563;28;20246;-53
2022/09/22 08:53:35;;;;;;;10.77;6.30;;;;;;;10.25;75.20;99225.94;4982555;28;20265;-52
2022/09/22 08:56:11;;;;;;;9.73;5.13;;;;;;;10.37;74.56;99222.25;4982253;28;20240;-52
2022/09/22 08:58:43;;;;;;;9.47;5.67;;;;;;;10.48;72.72;99223.94;4985226;28;20234;-55
2022/09/22 09:01:38;;;;;;;10.33;4.93;;;;;;;10.55;73.04;99227.66;4982521;28;20231;-53
2022/09/22 09:04:30;;;;;;;6.23;4.53;;;;;;;10.66;72.74;99231.94;4980809;28;20770;-55
2022/09/22 09:07:07;;;;;;;8.27;4.50;;;;;;;10.63;71.93;99225.22;4983815;28;20229;-54
2022/09/22 09:09:43;;;;;;;9.43;4.40;;;;;;;10.69;72.92;99225.63;4986526;28;20261;-54
2022/09/22 09:12:30;;;;;;;5.33;3.70;;;;;;;10.84;72.76;99226.03;4983049;28;20217;-55
2022/09/22 09:15:26;;;;;;;7.53;3.70;;;;;;;10.93;73.06;99238.25;4982328;28;20227;-55
2022/09/22 09:18:16;;;;;;;7.60;3.77;;;;;;;10.93;72.61;99227.81;4983882;28;20245;-52
2022/09/22 09:20:46;;;;;;;7.17;4.23;;;;;;;10.99;73.22;99222.03;4985052;28;20240;-52
2022/09/22 09:23:17;;;;;;;6.07;3.57;;;;;;;11.10;73.11;99234.16;4981934;28;20242;-55
2022/09/22 09:25:47;;;;;;;4.43;2.90;;;;;;;11.13;73.30;99222.56;4984128;28;20235;-54
2022/09/22 09:28:18;;;;;;;7.73;3.37;;;;;;;11.26;71.12;99232.72;4981526;28;20703;-55
2022/09/22 09:30:56;;;;;;;4.20;2.83;;;;;;;11.34;69.74;99225.00;4986331;28;20234;-54
2022/09/22 09:33:28;;;;;;;9.07;3.60;;;;;;;11.49;70.10;99220.97;4981815;28;20245;-54
2022/09/22 09:35:58;;;;;;;4.37;2.63;;;;;;;11.56;69.98;99223.03;4981381;28;20425;-55
2022/09/22 09:38:30;;;;;;;5.17;2.70;;;;;;;11.59;70.27;99228.81;4985378;28;20241;-54
2022/09/22 09:41:02;;;;;;;7.70;3.07;;;;;;;11.75;70.60;99224.75;4983152;28;20257;-54
2022/09/22 09:43:32;;;;;;;4.80;3.03;;;;;;;11.87;70.02;99226.22;4990339;28;20240;-55
2022/09/22 09:46:10;;;;;;;4.47;2.53;;;;;;;11.89;69.65;99226.09;4988407;28;20235;-56
2022/09/22 09:48:46;;;;;;;4.30;2.47;;;;;;;12.03;68.73;99227.41;4988166;28;20741;-56
2022/09/22 09:51:14;;;;;;;5.97;3.20;;;;;;;12.14;68.76;99229.03;4978721;28;20251;-55
2022/09/22 09:53:45;;;;;;;4.50;2.50;;;;;;;12.24;69.40;99224.53;4985608;28;20285;-55
2022/09/22 09:56:22;;;;;;;6.17;2.90;;;;;;;12.35;69.48;99220.91;4986407;28;20230;-53
2022/09/22 10:01:44;;;;;;;5.27;2.60;;;;;;;12.51;69.51;99213.22;4982146;28;20228;-55
2022/09/22 10:04:18;;;;;;;4.20;2.50;;;;;;;12.67;69.98;99214.34;4984628;28;20247;-55
2022/09/22 10:06:47;;;;;;;7.93;2.67;;;;;;;12.77;69.06;99209.84;4984305;28;20234;-56
2022/09/22 10:09:24;;;;;;;7.57;2.60;;;;;;;12.83;69.46;99208.41;4986248;28;20309;-52
2022/09/22 10:11:59;;;;;;;8.80;3.00;;;;;;;12.84;69.09;99197.78;4987002;28;20237;-55
2022/09/22 10:14:29;;;;;;;5.47;2.87;;;;;;;12.90;69.76;99200.78;4985541;28;20313;-55
2022/09/22 10:16:57;;;;;;;6.03;2.80;;;;;;;13.07;68.34;99197.31;4987036;28;20227;-52
2022/09/22 10:19:28;;;;;;;3.73;2.43;;;;;;;13.24;67.35;99197.41;4987509;28;20247;-53
2022/09/22 10:22:22;;;;;;;6.13;2.73;;;;;;;13.26;67.39;99185.78;4988000;28;20228;-56
2022/09/22 10:24:57;;;;;;;5.07;2.57;;;;;;;13.38;66.58;99185.53;4989349;28;20236;-54
2022/09/22 10:27:25;;;;;;;4.63;2.20;;;;;;;13.42;67.19;99184.28;4989193;28;20310;-55
2022/09/22 10:30:20;;;;;;;5.40;2.50;;;;;;;13.48;65.56;99185.47;4996371;28;20508;-55
2022/09/22 10:33:04;;;;;;;5.37;2.20;;;;;;;13.56;64.87;99177.66;4991916;28;20704;-53
2022/09/22 10:35:55;;;;;;;4.17;2.30;;;;;;;13.65;64.58;99179.31;4988164;28;20583;-56
2022/09/22 10:38:25;;;;;;;7.83;2.00;;;;;;;13.75;64.42;99176.56;4983008;28;20628;-56
2022/09/22 10:40:57;;;;;;;3.20;1.97;;;;;;;13.81;64.13;99167.22;4990380;28;20258;-56
2022/09/22 10:43:35;;;;;;;5.03;1.43;;;;;;;13.96;61.87;99164.84;4987091;28;20241;-55
2022/09/22 10:46:20;;;;;;;3.60;1.43;;;;;;;14.13;59.32;99163.91;4985408;28;20241;-55
2022/09/22 10:48:49;;;;;;;2.20;1.20;;;;;;;14.29;58.65;99165.72;4992167;28;20233;-55
2022/09/22 10:51:32;;;;;;;2.33;1.27;;;;;;;14.35;58.34;99169.50;4986033;28;20233;-53
2022/09/22 10:54:21;;;;;;;1.30;1.07;;;;;;;14.45;56.25;99164.13;4984481;28;20233;-55
2022/09/22 10:56:52;;;;;;;1.10;0.93;;;;;;;14.50;56.10;99172.34;4987545;28;20235;-55
2022/09/22 10:59:46;;;;;;;3.50;1.30;;;;;;;14.55;54.86;99170.03;4984169;28;20243;-56
2022/09/22 11:02:43;;;;;;;2.37;1.37;;;;;;;14.57;56.09;99160.19;4992476;28;20535;-55
2022/09/22 11:14:04;;;;;;;3.07;0.90;;;;;;;15.04;52.84;99156.09;4987872;28;20234;-53
2022/09/22 11:16:52;;;;;;;3.93;0.90;;;;;;;15.17;50.52;99145.03;4987342;28;20306;-55
2022/09/22 11:19:42;;;;;;;2.20;1.00;;;;;;;15.26;51.10;99155.53;4985231;28;20252;-55
2022/09/22 11:22:26;;;;;;;3.27;1.10;;;;;;;15.30;53.56;99155.06;4985511;28;20233;-54
2022/09/22 11:25:10;;;;;;;1.40;1.00;;;;;;;15.35;52.35;99147.47;4988005;28;20283;-54
2022/09/22 11:28:07;;;;;;;1.93;0.83;;;;;;;15.38;52.23;99140.22;4978974;28;20237;-56
2022/09/22 11:30:44;;;;;;;2.73;1.20;;;;;;;15.45;52.56;99138.53;4984548;28;20748;-56
2022/09/22 11:33:38;;;;;;;1.87;1.00;;;;;;;15.51;51.15;99140.50;4984540;28;20224;-55
2022/09/22 11:36:19;;;;;;;1.50;1.00;;;;;;;15.61;50.82;99132.41;4982290;28;20579;-53
2022/09/22 11:39:03;;;;;;;5.67;1.47;;;;;;;15.68;49.74;99143.91;4986062;28;20229;-56
2022/09/22 11:41:36;;;;;;;2.97;0.80;;;;;;;15.79;49.74;99134.78;4982517;28;20568;-55
2022/09/22 11:44:22;;;;;;;3.30;1.00;;;;;;;15.91;48.65;99140.50;4984486;28;20237;-56
2022/09/22 11:47:03;;;;;;;1.37;1.00;;;;;;;15.96;50.61;99138.19;4986769;28;20324;-56
2022/09/22 11:49:51;;;;;;;4.70;1.23;;;;;;;16.11;48.39;99137.44;4984246;28;20231;-56
2022/09/22 11:52:32;;;;;;;2.10;1.10;;;;;;;16.16;47.12;99125.41;4986293;28;20242;-56
2022/09/22 11:55:22;;;;;;;1.50;1.00;;;;;;;16.22;48.25;99124.72;4985036;28;20701;-56
2022/09/22 11:57:53;;;;;;;3.57;1.00;;;;;;;16.23;48.71;99118.44;4986027;28;20236;-56
2022/09/22 12:00:33;;;;;;;3.20;1.00;;;;;;;16.40;49.13;99113.06;4982798;28;20320;-56
2022/09/22 12:03:09;;;;;;;1.60;0.80;;;;;;;16.61;47.77;99114.19;4981117;28;20270;-55
2022/09/22 12:05:40;;;;;;;4.20;1.10;;;;;;;16.62;46.60;99113.19;4981320;28;20677;-56
2022/09/22 12:08:12;;;;;;;2.03;0.90;;;;;;;16.66;46.80;99117.94;4984337;28;20674;-55
2022/09/22 12:10:43;;;;;;;3.23;1.00;;;;;;;16.77;46.84;99115.88;4986753;28;20264;-55
2022/09/22 12:13:15;;;;;;;2.93;0.90;;;;;;;16.78;46.66;99110.41;4982952;28;20315;-55
2022/09/22 12:15:58;;;;;;;3.57;0.90;;;;;;;16.81;47.35;99111.88;4986397;28;20800;-56
2022/09/22 12:18:34;;;;;;;1.77;1.00;;;;;;;16.86;46.29;99111.34;4982197;28;20730;-56
2022/09/22 12:21:05;;;;;;;3.33;1.07;;;;;;;16.89;45.03;99108.34;4981411;28;20283;-56
2022/09/22 12:23:38;;;;;;;3.03;1.00;;;;;;;16.86;45.45;99098.97;4988039;28;20959;-55
2022/09/22 12:26:08;;;;;;;2.27;1.00;;;;;;;16.83;45.15;99099.34;4982950;28;20231;-52
2022/09/22 12:28:40;;;;;;;2.93;1.00;;;;;;;16.99;44.84;99094.91;4988171;28;20648;-54
2022/09/22 12:31:11;;;;;;;5.57;1.00;;;;;;;17.09;44.29;99098.94;4983011;28;20330;-56
2022/09/22 12:33:45;;;;;;;3.73;1.10;;;;;;;17.05;44.32;99094.19;4984664;28;20988;-56
2022/09/22 12:36:13;;;;;;;3.17;0.90;;;;;;;17.12;44.82;99095.09;4982181;28;20692;-54
2022/09/22 12:38:40;;;;;;;2.40;1.00;;;;;;;17.17;42.70;99095.38;4987959;28;20312;-55
2022/09/22 12:41:07;;;;;;;2.87;1.03;;;;;;;17.22;43.31;99090.38;4982499;28;20223;-55
2022/09/22 12:43:35;;;;;;;1.37;0.90;;;;;;;17.23;43.11;99083.28;4986054;28;20599;-55